createdAt,value
2022-09-29T00:01:13.670Z,1.60
2022-09-29T00:03:43.133Z,1.67
2022-09-29T00:06:15.513Z,1.92
2022-09-29T00:08:48.323Z,1.52
2022-09-29T00:11:18.947Z,1.60
2022-09-29T00:13:50.409Z,2.30
2022-09-29T00:16:22.332Z,2.00
2022-09-29T00:18:57.205Z,1.60
2022-09-29T00:21:24.572Z,2.33
2022-09-29T00:23:53.957Z,2.45
2022-09-29T00:26:24.107Z,4.00
2022-09-29T00:29:00.738Z,3.30
2022-09-29T00:31:34.265Z,3.50
2022-09-29T00:34:01.684Z,2.65
2022-09-29T00:36:30.263Z,2.58
2022-09-29T00:38:58.820Z,2.15
2022-09-29T00:41:34.197Z,1.40
2022-09-29T00:44:25.218Z,1.55
2022-09-29T00:47:03.525Z,1.40
2022-09-29T00:49:47.477Z,4.97
2022-09-29T00:52:29.665Z,1.52
2022-09-29T00:55:03.587Z,1.85
2022-09-29T00:57:39.297Z,2.08
2022-09-29T01:00:15.870Z,1.55
2022-09-29T01:03:13.657Z,1.58
2022-09-29T01:05:47.985Z,1.70
2022-09-29T01:08:35.314Z,1.88
2022-09-29T01:11:04.256Z,1.35
2022-09-29T01:13:35.831Z,2.67
2022-09-29T01:18:32.025Z,1.70
2022-09-29T01:21:19.176Z,3.28
2022-09-29T01:24:43.757Z,1.75
2022-09-29T01:27:46.856Z,1.80
2022-09-29T01:30:45.053Z,2.65
2022-09-29T01:33:41.923Z,2.00
2022-09-29T01:36:14.014Z,2.63
2022-09-29T01:39:11.140Z,3.03
2022-09-29T01:41:46.604Z,2.22
2022-09-29T01:44:40.470Z,1.73
2022-09-29T01:47:13.972Z,1.77
2022-09-29T01:49:47.020Z,2.55
2022-09-29T01:52:23.640Z,2.15
2022-09-29T01:55:02.935Z,3.10
2022-09-29T01:58:01.357Z,2.90
2022-09-29T02:00:38.987Z,2.40
2022-09-29T02:03:21.514Z,2.42
2022-09-29T02:05:54.653Z,2.40
2022-09-29T02:08:32.698Z,1.92
2022-09-29T02:11:12.918Z,1.75
2022-09-29T02:13:47.608Z,1.40
2022-09-29T02:16:18.414Z,2.40
2022-09-29T02:19:13.530Z,1.85
2022-09-29T02:21:40.383Z,2.20
2022-09-29T02:24:07.328Z,2.13
2022-09-29T02:26:41.500Z,2.72
2022-09-29T02:29:09.141Z,1.70
2022-09-29T02:31:40.313Z,3.63
2022-09-29T02:34:14.391Z,2.40
2022-09-29T02:37:32.514Z,2.92
2022-09-29T02:40:47.093Z,2.28
2022-09-29T02:43:45.553Z,2.47
2022-09-29T02:46:46.990Z,1.65
2022-09-29T02:49:29.911Z,2.03
2022-09-29T02:52:21.997Z,2.13
2022-09-29T02:55:28.848Z,1.83
2022-09-29T02:58:20.997Z,3.15
2022-09-29T03:00:48.316Z,3.83
2022-09-29T03:03:15.321Z,2.30
2022-09-29T03:05:42.236Z,2.60
2022-09-29T03:08:09.008Z,2.00
2022-09-29T03:10:38.049Z,2.08
2022-09-29T03:13:07.221Z,1.50
2022-09-29T03:15:36.338Z,2.35
2022-09-29T03:18:08.159Z,1.83
2022-09-29T03:20:39.582Z,2.20
2022-09-29T03:23:06.660Z,1.50
2022-09-29T03:25:33.515Z,1.98
2022-09-29T03:28:00.444Z,1.17
2022-09-29T03:30:31.961Z,3.13
2022-09-29T03:32:58.779Z,1.77
2022-09-29T03:35:28.775Z,0.77
2022-09-29T03:38:00.381Z,1.45
2022-09-29T03:42:55.125Z,2.63
2022-09-29T03:45:22.288Z,4.28
2022-09-29T03:47:51.666Z,5.15
2022-09-29T03:50:20.796Z,4.05
2022-09-29T03:52:50.167Z,4.32
2022-09-29T03:55:17.125Z,4.38
2022-09-29T03:57:46.504Z,4.53
2022-09-29T04:00:14.583Z,3.97
2022-09-29T04:02:41.736Z,3.03
2022-09-29T04:05:08.819Z,2.45
2022-09-29T04:07:35.873Z,1.83
2022-09-29T04:10:02.729Z,2.72
2022-09-29T04:12:29.579Z,1.60
2022-09-29T04:14:57.391Z,1.30
2022-09-29T04:17:29.195Z,1.77
2022-09-29T04:19:56.000Z,1.45
2022-09-29T04:22:22.829Z,1.15
2022-09-29T04:24:52.189Z,1.95
2022-09-29T04:27:21.994Z,1.52
2022-09-29T04:29:49.003Z,2.30
2022-09-29T04:32:18.648Z,1.88
2022-09-29T04:34:45.668Z,1.98
2022-09-29T04:37:14.730Z,1.50
2022-09-29T04:39:41.573Z,1.35
2022-09-29T04:42:11.132Z,1.60
2022-09-29T04:44:38.060Z,2.95
2022-09-29T04:47:05.161Z,2.45
2022-09-29T04:49:32.110Z,2.17
2022-09-29T04:52:03.610Z,2.25
2022-09-29T04:54:38.245Z,2.03
2022-09-29T04:57:08.003Z,2.88
2022-09-29T04:59:34.795Z,3.05
2022-09-29T05:02:01.930Z,2.67
2022-09-29T05:04:28.868Z,2.03
2022-09-29T05:06:55.719Z,2.08
2022-09-29T05:09:26.422Z,2.38
2022-09-29T05:11:54.712Z,3.45
2022-09-29T05:14:21.541Z,3.13
2022-09-29T05:16:48.388Z,2.90
2022-09-29T05:19:17.463Z,1.90
2022-09-29T05:21:48.892Z,3.83
2022-09-29T05:24:20.316Z,2.95
2022-09-29T05:26:49.674Z,3.25
2022-09-29T05:29:17.097Z,4.63
2022-09-29T05:31:44.091Z,2.97
2022-09-29T05:34:11.254Z,4.30
2022-09-29T05:36:38.240Z,4.03
2022-09-29T05:39:07.373Z,3.47
2022-09-29T05:41:37.204Z,2.60
2022-09-29T05:44:04.337Z,2.88
2022-09-29T05:46:33.824Z,4.25
2022-09-29T05:49:01.258Z,3.50
2022-09-29T05:51:30.237Z,4.80
2022-09-29T05:53:57.072Z,3.75
2022-09-29T05:56:27.509Z,3.85
2022-09-29T05:58:55.313Z,4.85
2022-09-29T06:01:26.519Z,5.95
2022-09-29T06:03:59.367Z,4.07
2022-09-29T06:06:29.071Z,6.93
2022-09-29T06:08:59.715Z,4.32
2022-09-29T06:11:33.786Z,4.20
2022-09-29T06:14:02.528Z,5.85
2022-09-29T06:16:33.567Z,4.80
2022-09-29T06:19:04.135Z,5.35
2022-09-29T06:21:34.641Z,4.07
2022-09-29T06:24:07.126Z,3.25
2022-09-29T06:26:36.610Z,3.45
2022-09-29T06:29:04.250Z,3.90
2022-09-29T06:31:32.904Z,4.05
2022-09-29T06:34:02.265Z,2.88
2022-09-29T06:37:07.667Z,4.95
2022-09-29T06:39:34.501Z,3.13
2022-09-29T06:42:03.962Z,5.63
2022-09-29T06:44:30.925Z,2.60
2022-09-29T06:46:58.843Z,4.07
2022-09-29T06:49:28.362Z,4.00
2022-09-29T06:51:57.699Z,3.72
2022-09-29T06:54:31.838Z,3.53
2022-09-29T06:57:01.414Z,3.20
2022-09-29T06:59:30.499Z,3.80
2022-09-29T07:01:57.727Z,4.75
2022-09-29T07:04:27.185Z,3.10
2022-09-29T07:06:54.404Z,4.32
2022-09-29T07:09:21.495Z,3.90
2022-09-29T07:11:51.556Z,4.35
2022-09-29T07:14:24.196Z,4.80
2022-09-29T07:16:58.763Z,6.07
2022-09-29T07:19:25.731Z,6.45
2022-09-29T07:21:52.622Z,4.95
2022-09-29T07:24:19.551Z,4.95
2022-09-29T07:26:48.892Z,3.05
2022-09-29T07:29:18.915Z,5.35
2022-09-29T07:31:52.618Z,6.13
2022-09-29T07:34:25.211Z,5.00
2022-09-29T07:36:52.048Z,5.53
2022-09-29T07:39:21.707Z,4.88
2022-09-29T07:41:49.186Z,6.40
2022-09-29T07:44:16.151Z,5.97
2022-09-29T07:46:45.584Z,8.88
2022-09-29T07:49:14.660Z,5.82
2022-09-29T07:51:44.085Z,8.32
2022-09-29T07:54:13.637Z,7.05
2022-09-29T07:56:40.649Z,5.43
2022-09-29T07:59:07.759Z,6.50
2022-09-29T08:01:39.690Z,6.72
2022-09-29T08:04:09.094Z,10.85
2022-09-29T08:06:38.570Z,8.05
2022-09-29T08:09:08.499Z,7.25
2022-09-29T08:11:43.417Z,6.20
2022-09-29T08:14:13.745Z,5.80
2022-09-29T08:16:40.757Z,6.35
2022-09-29T08:19:10.027Z,4.30
2022-09-29T08:21:39.327Z,5.85
2022-09-29T08:24:09.622Z,8.60
2022-09-29T08:26:44.546Z,8.18
2022-09-29T08:29:16.938Z,5.68
2022-09-29T08:31:49.444Z,7.18
2022-09-29T08:34:16.491Z,4.70
2022-09-29T08:36:48.208Z,5.88
2022-09-29T08:39:17.540Z,6.50
2022-09-29T08:42:06.638Z,6.22
2022-09-29T08:45:09.707Z,7.45
2022-09-29T08:47:53.359Z,7.82
2022-09-29T08:50:45.724Z,6.97
2022-09-29T08:53:27.711Z,6.10
2022-09-29T08:56:00.846Z,7.72
2022-09-29T08:58:27.887Z,6.28
2022-09-29T09:01:13.201Z,5.05
2022-09-29T09:04:04.538Z,4.45
2022-09-29T09:06:36.545Z,5.03
2022-09-29T09:09:50.833Z,5.10
2022-09-29T09:13:07.272Z,4.97
2022-09-29T09:15:59.163Z,3.88
2022-09-29T09:21:18.759Z,2.47
2022-09-29T09:24:00.108Z,3.88
2022-09-29T09:26:42.762Z,4.07
2022-09-29T09:32:17.173Z,4.65
2022-09-29T09:34:57.764Z,4.22
2022-09-29T09:37:46.896Z,3.85
2022-09-29T09:40:20.736Z,3.47
2022-09-29T09:43:04.770Z,3.38
2022-09-29T09:45:48.831Z,5.05
2022-09-29T09:48:23.986Z,2.80
2022-09-29T09:50:53.474Z,2.67
2022-09-29T09:53:31.693Z,2.95
2022-09-29T09:56:32.449Z,1.60
2022-09-29T09:59:45.800Z,1.83
2022-09-29T10:02:22.099Z,1.75
2022-09-29T10:04:54.383Z,2.08
2022-09-29T10:07:25.340Z,2.90
2022-09-29T10:09:53.282Z,2.33
2022-09-29T10:12:23.254Z,3.45
2022-09-29T10:15:05.633Z,2.88
2022-09-29T10:17:48.235Z,1.98
2022-09-29T10:20:37.221Z,2.65
2022-09-29T10:23:44.343Z,2.92
2022-09-29T10:26:25.709Z,1.48
2022-09-29T10:28:58.911Z,1.55
2022-09-29T10:31:36.629Z,3.08
2022-09-29T10:34:17.604Z,1.42
2022-09-29T10:36:58.672Z,1.73
2022-09-29T10:39:48.121Z,2.03
2022-09-29T10:42:48.282Z,2.17
2022-09-29T10:45:27.221Z,1.40
2022-09-29T10:48:04.215Z,1.73
2022-09-29T10:50:37.452Z,1.55
2022-09-29T10:53:38.100Z,0.90
2022-09-29T10:56:25.062Z,1.75
2022-09-29T10:59:03.307Z,1.60
2022-09-29T11:02:02.777Z,3.10
2022-09-29T11:04:39.843Z,2.17
2022-09-29T11:07:11.512Z,1.38
2022-09-29T11:09:46.001Z,1.88
2022-09-29T11:12:33.943Z,1.42
2022-09-29T11:15:23.135Z,1.48
2022-09-29T11:17:51.383Z,1.35
2022-09-29T11:20:18.702Z,1.88
2022-09-29T11:23:26.313Z,1.50
2022-09-29T11:26:10.304Z,1.77
2022-09-29T11:28:52.462Z,1.10
2022-09-29T11:31:26.057Z,1.10
2022-09-29T11:34:31.618Z,1.38
2022-09-29T11:37:13.226Z,0.88
2022-09-29T11:40:18.548Z,1.10
2022-09-29T11:42:51.139Z,1.25
2022-09-29T11:45:27.993Z,1.15
2022-09-29T11:48:54.308Z,0.80
2022-09-29T11:51:31.781Z,0.85
2022-09-29T11:54:28.604Z,0.88
2022-09-29T11:57:19.300Z,1.52
2022-09-29T11:59:49.433Z,1.40
2022-09-29T12:02:52.885Z,1.58
2022-09-29T12:06:13.629Z,1.45
2022-09-29T12:09:17.568Z,1.65
2022-09-29T12:12:24.106Z,1.55
2022-09-29T12:15:19.846Z,1.00
2022-09-29T12:18:05.129Z,1.60
2022-09-29T12:20:42.687Z,0.70
2022-09-29T12:23:14.951Z,1.98
2022-09-29T12:25:54.585Z,0.90
2022-09-29T12:28:31.637Z,1.73
2022-09-29T12:31:13.213Z,0.80
2022-09-29T12:37:02.515Z,2.60
2022-09-29T12:40:05.703Z,1.88
2022-09-29T12:43:37.516Z,1.13
2022-09-29T12:46:13.141Z,0.70
2022-09-29T12:49:21.547Z,0.82
2022-09-29T12:51:51.225Z,1.10
2022-09-29T12:54:24.297Z,1.75
2022-09-29T12:57:06.358Z,1.30
2022-09-29T12:59:55.441Z,2.55
2022-09-29T13:03:07.876Z,1.10
2022-09-29T13:06:18.999Z,2.42
2022-09-29T13:08:56.928Z,1.40
2022-09-29T13:11:42.130Z,0.90
2022-09-29T13:14:46.310Z,1.17
2022-09-29T13:17:38.783Z,1.73
2022-09-29T13:20:52.078Z,1.67
2022-09-29T13:23:52.502Z,1.50
2022-09-29T13:26:55.447Z,1.73
2022-09-29T13:29:28.729Z,1.35
2022-09-29T13:31:59.593Z,1.58
2022-09-29T13:34:35.951Z,1.08
2022-09-29T13:37:24.474Z,1.30
2022-09-29T13:40:11.695Z,2.60
2022-09-29T13:42:47.222Z,0.98
2022-09-29T13:45:41.240Z,2.92
2022-09-29T13:48:17.504Z,0.80
2022-09-29T13:50:50.578Z,1.45
2022-09-29T13:53:25.540Z,1.05
2022-09-29T13:56:17.616Z,0.88
2022-09-29T13:59:14.792Z,1.45
2022-09-29T14:01:44.056Z,0.90
2022-09-29T14:04:37.488Z,1.98
2022-09-29T14:07:08.129Z,1.75
2022-09-29T14:09:42.326Z,1.30
2022-09-29T14:12:30.494Z,1.75
2022-09-29T14:15:04.467Z,2.00
2022-09-29T14:17:37.624Z,2.30
2022-09-29T14:20:34.915Z,4.78
2022-09-29T14:23:07.835Z,2.72
2022-09-29T14:25:40.615Z,3.10
2022-09-29T14:28:13.364Z,2.83
2022-09-29T14:30:51.222Z,1.65
2022-09-29T14:33:29.597Z,2.65
2022-09-29T14:35:59.229Z,3.67
2022-09-29T14:38:43.982Z,2.22
2022-09-29T14:41:10.784Z,2.15
2022-09-29T14:43:37.553Z,2.80
2022-09-29T14:46:48.151Z,1.95
2022-09-29T14:50:06.834Z,1.90
2022-09-29T14:52:58.029Z,2.13
2022-09-29T14:55:47.463Z,4.43
2022-09-29T14:58:36.860Z,6.18
2022-09-29T15:01:38.963Z,2.85
2022-09-29T15:04:10.132Z,3.92
2022-09-29T15:06:50.598Z,3.75
2022-09-29T15:09:21.901Z,3.75
2022-09-29T15:14:28.017Z,3.35
2022-09-29T15:17:29.296Z,2.67
2022-09-29T15:20:27.267Z,2.35
2022-09-29T15:23:08.299Z,2.45
2022-09-29T15:25:41.403Z,1.45
2022-09-29T15:28:31.621Z,1.73
2022-09-29T15:31:10.751Z,1.25
2022-09-29T15:33:44.169Z,1.67
2022-09-29T15:36:31.474Z,2.95
2022-09-29T15:39:14.320Z,3.40
2022-09-29T15:41:44.935Z,2.50
2022-09-29T15:44:20.140Z,2.47
2022-09-29T15:46:57.416Z,2.03
2022-09-29T15:49:29.452Z,3.20
2022-09-29T15:52:00.510Z,4.15
2022-09-29T15:54:35.060Z,1.83
2022-09-29T15:57:23.468Z,1.88
2022-09-29T15:59:55.868Z,2.80
2022-09-29T16:02:38.247Z,4.68
2022-09-29T16:05:15.515Z,2.58
2022-09-29T16:08:03.179Z,3.38
2022-09-29T16:10:43.618Z,1.85
2022-09-29T16:13:21.328Z,1.85
2022-09-29T16:15:50.238Z,5.78
2022-09-29T16:18:51.640Z,2.05
2022-09-29T16:21:27.751Z,1.95
2022-09-29T16:24:19.206Z,2.83
2022-09-29T16:26:49.876Z,1.42
2022-09-29T16:29:21.697Z,1.52
2022-09-29T16:31:50.664Z,1.10
2022-09-29T16:34:23.609Z,1.85
2022-09-29T16:37:33.239Z,1.58
2022-09-29T16:40:03.267Z,2.28
2022-09-29T16:42:30.491Z,1.48
2022-09-29T16:45:01.686Z,1.83
2022-09-29T16:47:34.041Z,3.42
2022-09-29T16:50:14.436Z,1.90
2022-09-29T16:52:48.654Z,2.00
2022-09-29T16:55:18.640Z,1.98
2022-09-29T16:57:58.833Z,1.98
2022-09-29T17:00:26.143Z,2.38
2022-09-29T17:02:55.423Z,1.92
2022-09-29T17:05:26.549Z,1.73
2022-09-29T17:08:05.220Z,1.63
2022-09-29T17:10:33.180Z,2.47
2022-09-29T17:13:00.804Z,1.70
2022-09-29T17:15:28.015Z,2.20
2022-09-29T17:17:54.920Z,1.60
2022-09-29T17:20:30.231Z,2.42
2022-09-29T17:23:00.004Z,1.33
2022-09-29T17:25:29.538Z,1.55
2022-09-29T17:28:12.580Z,2.53
2022-09-29T17:30:44.187Z,1.70
2022-09-29T17:35:55.120Z,2.90
2022-09-29T17:38:27.715Z,3.67
2022-09-29T17:40:56.299Z,3.72
2022-09-29T17:43:24.299Z,2.70
2022-09-29T17:45:55.977Z,2.25
2022-09-29T17:48:22.939Z,2.72
2022-09-29T17:50:52.219Z,1.85
2022-09-29T17:53:19.341Z,2.10
2022-09-29T17:55:49.602Z,3.63
2022-09-29T17:58:19.365Z,10.70
2022-09-29T18:00:51.640Z,3.88
2022-09-29T18:03:21.109Z,3.78
2022-09-29T18:05:56.150Z,3.67
2022-09-29T18:08:29.239Z,3.10
2022-09-29T18:11:01.715Z,2.67
2022-09-29T18:13:33.622Z,4.10
2022-09-29T18:16:03.784Z,3.33
2022-09-29T18:18:30.731Z,2.50
2022-09-29T18:21:01.409Z,2.33
2022-09-29T18:23:31.492Z,3.15
2022-09-29T18:26:01.425Z,1.40
2022-09-29T18:28:28.303Z,2.55
2022-09-29T18:31:11.606Z,2.92
2022-09-29T18:33:39.570Z,2.00
2022-09-29T18:36:09.020Z,1.38
2022-09-29T18:38:35.893Z,1.50
2022-09-29T18:41:02.829Z,1.40
2022-09-29T18:43:32.645Z,2.17
2022-09-29T18:46:02.178Z,1.83
2022-09-29T18:48:34.390Z,0.88
2022-09-29T18:51:05.838Z,1.50
2022-09-29T18:53:35.576Z,2.30
2022-09-29T18:56:04.542Z,1.63
2022-09-29T18:58:34.098Z,3.45
2022-09-29T19:01:03.451Z,1.95
2022-09-29T19:03:31.859Z,1.33
2022-09-29T19:06:01.449Z,1.50
2022-09-29T19:08:36.884Z,1.13
2022-09-29T19:11:06.565Z,1.25
2022-09-29T19:13:33.433Z,1.35
2022-09-29T19:16:03.790Z,1.13
2022-09-29T19:18:32.465Z,0.85
2022-09-29T19:21:00.701Z,1.10
2022-09-29T19:23:27.952Z,1.45
2022-09-29T19:25:58.604Z,1.58
2022-09-29T19:28:27.385Z,1.05
2022-09-29T19:30:55.985Z,0.65
2022-09-29T19:33:26.316Z,1.27
2022-09-29T19:35:55.018Z,1.45
2022-09-29T19:38:25.240Z,1.30
2022-09-29T19:40:52.442Z,0.63
2022-09-29T19:43:26.234Z,0.70
2022-09-29T19:45:55.842Z,0.85
2022-09-29T19:48:24.076Z,1.02
2022-09-29T19:51:18.558Z,0.95
2022-09-29T19:53:50.336Z,1.05
2022-09-29T19:56:19.824Z,1.10
2022-09-29T19:58:51.204Z,1.05
2022-09-29T20:01:18.759Z,1.10
2022-09-29T20:03:48.102Z,1.55
2022-09-29T20:06:15.218Z,1.40
2022-09-29T20:08:44.585Z,1.45
2022-09-29T20:11:14.479Z,1.20
2022-09-29T20:13:41.746Z,1.50
2022-09-29T20:16:11.312Z,1.27
2022-09-29T20:18:46.712Z,0.95
2022-09-29T20:21:17.277Z,1.52
2022-09-29T20:23:44.746Z,0.80
2022-09-29T20:26:11.634Z,1.55
2022-09-29T20:28:40.469Z,0.75
2022-09-29T20:31:08.167Z,0.82
2022-09-29T20:33:36.758Z,1.45
2022-09-29T20:36:05.234Z,1.70
2022-09-29T20:38:34.846Z,1.67
2022-09-29T20:41:07.308Z,1.17
2022-09-29T20:43:37.664Z,0.70
2022-09-29T20:46:13.786Z,1.88
2022-09-29T20:48:41.951Z,1.23
2022-09-29T20:51:16.875Z,1.40
2022-09-29T20:53:51.506Z,3.58
2022-09-29T20:56:21.190Z,1.15
2022-09-29T20:58:58.364Z,1.70
2022-09-29T21:01:31.541Z,0.95
2022-09-29T21:04:08.547Z,0.88
2022-09-29T21:06:46.204Z,0.70
2022-09-29T21:09:16.428Z,1.10
2022-09-29T21:11:48.386Z,1.33
2022-09-29T21:14:19.537Z,0.85
2022-09-29T21:16:54.629Z,0.80
2022-09-29T21:19:26.043Z,2.28
2022-09-29T21:24:21.318Z,1.95
2022-09-29T21:26:48.271Z,0.93
2022-09-29T21:29:19.245Z,2.05
2022-09-29T21:31:46.658Z,2.17
2022-09-29T21:34:17.280Z,2.65
2022-09-29T21:36:44.176Z,1.58
2022-09-29T21:39:14.651Z,2.25
2022-09-29T21:41:45.169Z,2.50
2022-09-29T21:44:21.482Z,2.10
2022-09-29T21:46:48.729Z,2.78
2022-09-29T21:49:16.784Z,2.42
2022-09-29T21:51:49.694Z,4.15
2022-09-29T21:54:19.980Z,1.90
2022-09-29T21:56:50.385Z,1.60
2022-09-29T21:59:22.502Z,2.67
2022-09-29T22:01:50.600Z,1.48
2022-09-29T22:04:20.480Z,2.22
2022-09-29T22:06:47.894Z,2.38
2022-09-29T22:09:21.329Z,1.40
2022-09-29T22:11:53.134Z,1.40
2022-09-29T22:14:20.168Z,2.08
2022-09-29T22:16:47.233Z,2.38
2022-09-29T22:19:29.959Z,2.95
2022-09-29T22:21:57.090Z,2.13
2022-09-29T22:24:27.311Z,1.48
2022-09-29T22:26:54.847Z,1.33
2022-09-29T22:29:21.873Z,2.00
2022-09-29T22:31:48.789Z,1.08
2022-09-29T22:34:15.767Z,1.55
2022-09-29T22:36:42.810Z,1.65
2022-09-29T22:39:11.001Z,1.30
2022-09-29T22:42:48.148Z,2.58
2022-09-29T22:45:15.117Z,1.20
2022-09-29T22:47:44.537Z,1.70
2022-09-29T22:50:11.374Z,1.33
2022-09-29T22:52:42.804Z,2.15
2022-09-29T22:55:09.840Z,2.83
2022-09-29T22:57:39.734Z,2.50
2022-09-29T23:00:07.521Z,4.25
2022-09-29T23:02:34.374Z,2.40
2022-09-29T23:05:01.210Z,1.75
2022-09-29T23:07:30.118Z,1.02
2022-09-29T23:09:59.944Z,1.08
2022-09-29T23:12:30.548Z,1.45
2022-09-29T23:14:58.503Z,1.30
2022-09-29T23:17:30.006Z,1.10
2022-09-29T23:19:57.205Z,1.10
2022-09-29T23:22:29.165Z,1.30
2022-09-29T23:24:55.990Z,1.20
2022-09-29T23:27:22.898Z,1.40
2022-09-29T23:29:49.756Z,1.40
2022-09-29T23:32:18.284Z,0.90
2022-09-29T23:34:47.877Z,2.25
2022-09-29T23:37:14.760Z,0.80
2022-09-29T23:39:43.826Z,0.80
2022-09-29T23:42:14.486Z,0.75
2022-09-29T23:44:41.354Z,0.90
2022-09-29T23:47:08.514Z,0.90
2022-09-29T23:49:37.753Z,2.45
2022-09-29T23:52:04.608Z,1.20
2022-09-29T23:54:31.485Z,1.70
2022-09-29T23:56:58.637Z,0.95
2022-09-29T23:59:26.302Z,3.15
